createdAt,value
2022-11-05T00:02:52.951Z,8.50
2022-11-05T00:06:53.586Z,8.60
2022-11-05T00:10:38.162Z,8.60
2022-11-05T00:14:38.442Z,8.70
2022-11-05T00:18:20.491Z,8.70
2022-11-05T00:22:21.010Z,8.70
2022-11-05T00:26:08.523Z,8.80
2022-11-05T00:29:50.407Z,8.80
2022-11-05T00:33:32.786Z,8.80
2022-11-05T00:37:14.627Z,8.90
2022-11-05T00:40:57.268Z,8.80
2022-11-05T00:44:57.884Z,8.80
2022-11-05T00:48:58.309Z,8.80
2022-11-05T00:52:55.468Z,8.80
2022-11-05T00:56:37.207Z,8.80
2022-11-05T01:00:19.119Z,8.80
2022-11-05T01:04:00.947Z,8.80
2022-11-05T01:07:42.859Z,8.80
2022-11-05T01:11:42.932Z,8.90
2022-11-05T01:15:24.806Z,8.80
2022-11-05T01:19:08.556Z,8.90
2022-11-05T01:22:50.396Z,8.90
2022-11-05T01:26:32.224Z,8.90
2022-11-05T01:30:14.414Z,8.90
2022-11-05T01:33:56.318Z,8.90
2022-11-05T01:37:38.887Z,8.90
2022-11-05T01:41:20.737Z,8.90
2022-11-05T01:45:04.586Z,8.90
2022-11-05T01:48:48.205Z,8.80
2022-11-05T01:52:34.689Z,8.80
2022-11-05T01:56:19.344Z,8.80
2022-11-05T02:00:02.267Z,8.80
2022-11-05T02:03:45.834Z,8.80
2022-11-05T02:07:28.825Z,8.80
2022-11-05T02:11:14.252Z,8.80
2022-11-05T02:14:57.431Z,8.80
2022-11-05T02:18:59.020Z,8.80
2022-11-05T02:23:02.595Z,8.80
2022-11-05T02:26:44.425Z,8.80
2022-11-05T02:30:50.465Z,8.80
2022-11-05T02:34:38.611Z,8.90
2022-11-05T02:38:39.979Z,8.90
2022-11-05T02:42:33.850Z,9.00
2022-11-05T02:46:15.676Z,8.90
2022-11-05T02:50:19.060Z,9.00
2022-11-05T02:54:13.761Z,9.00
2022-11-05T02:57:55.708Z,9.00
2022-11-05T03:01:39.658Z,9.00
2022-11-05T03:05:38.145Z,9.00
2022-11-05T03:09:57.894Z,9.00
2022-11-05T03:14:07.424Z,9.00
2022-11-05T03:17:52.318Z,9.00
2022-11-05T03:21:42.599Z,9.00
2022-11-05T03:25:28.244Z,9.10
2022-11-05T03:29:15.842Z,9.10
2022-11-05T03:33:03.358Z,9.10
2022-11-05T03:36:53.203Z,9.10
2022-11-05T03:40:38.075Z,9.10
2022-11-05T03:44:28.898Z,9.10
2022-11-05T03:48:13.006Z,9.20
2022-11-05T03:52:30.352Z,9.20
2022-11-05T03:56:35.658Z,9.20
2022-11-05T04:00:17.652Z,9.30
2022-11-05T04:03:59.557Z,9.30
2022-11-05T04:08:00.708Z,9.30
2022-11-05T04:12:01.084Z,9.30
2022-11-05T04:16:01.733Z,9.30
2022-11-05T04:20:03.893Z,9.30
2022-11-05T04:24:04.398Z,9.20
2022-11-05T04:27:47.022Z,9.20
2022-11-05T04:31:28.856Z,9.20
2022-11-05T04:35:10.721Z,9.20
2022-11-05T04:38:52.545Z,9.20
2022-11-05T04:42:34.400Z,9.20
2022-11-05T04:46:16.306Z,9.20
2022-11-05T04:49:58.228Z,9.20
2022-11-05T04:53:41.132Z,9.20
2022-11-05T04:57:23.018Z,9.20
2022-11-05T05:01:04.925Z,9.20
2022-11-05T05:04:46.815Z,9.20
2022-11-05T05:08:28.665Z,9.20
2022-11-05T05:12:10.508Z,9.20
2022-11-05T05:15:53.560Z,9.20
2022-11-05T05:19:55.410Z,9.20
2022-11-05T05:23:37.577Z,9.20
2022-11-05T05:27:19.496Z,9.20
2022-11-05T05:31:01.850Z,9.20
2022-11-05T05:34:43.739Z,9.20
2022-11-05T05:38:25.986Z,9.20
2022-11-05T05:42:07.839Z,9.20
2022-11-05T05:45:49.682Z,9.20
2022-11-05T05:49:32.275Z,9.30
2022-11-05T05:53:14.205Z,9.30
2022-11-05T05:56:56.178Z,9.40
2022-11-05T06:00:38.012Z,9.40
2022-11-05T06:04:20.652Z,9.50
2022-11-05T06:08:02.482Z,9.50
2022-11-05T06:11:44.436Z,9.60
2022-11-05T06:15:27.102Z,9.60
2022-11-05T06:19:11.323Z,9.70
2022-11-05T06:22:57.441Z,9.70
2022-11-05T06:26:42.855Z,9.70
2022-11-05T06:30:24.788Z,9.80
2022-11-05T06:34:06.694Z,9.80
2022-11-05T06:37:48.523Z,9.80
2022-11-05T06:41:30.368Z,9.80
2022-11-05T06:45:12.260Z,9.80
2022-11-05T06:48:54.161Z,9.80
2022-11-05T06:52:40.923Z,9.80
2022-11-05T06:56:23.198Z,9.80
2022-11-05T07:00:08.024Z,9.80
2022-11-05T07:03:50.215Z,9.80
2022-11-05T07:07:32.097Z,9.80
2022-11-05T07:11:13.953Z,9.80
2022-11-05T07:14:55.785Z,9.80
2022-11-05T07:18:37.738Z,9.80
2022-11-05T07:22:19.562Z,9.80
2022-11-05T07:26:01.433Z,9.90
2022-11-05T07:29:43.484Z,9.90
2022-11-05T07:33:25.333Z,10.00
2022-11-05T07:37:07.226Z,10.00
2022-11-05T07:40:49.134Z,10.10
2022-11-05T07:44:30.981Z,10.10
2022-11-05T07:48:12.840Z,10.20
2022-11-05T07:51:54.743Z,10.30
2022-11-05T07:55:37.015Z,10.40
2022-11-05T07:59:18.894Z,10.40
2022-11-05T08:03:07.827Z,10.40
2022-11-05T08:06:50.169Z,10.50
2022-11-05T08:10:33.980Z,10.50
2022-11-05T08:14:15.880Z,10.60
2022-11-05T08:18:03.187Z,10.60
2022-11-05T08:21:45.129Z,10.60
2022-11-05T08:25:27.672Z,10.70
2022-11-05T08:29:09.497Z,10.80
2022-11-05T08:32:51.460Z,10.80
2022-11-05T08:36:35.229Z,10.90
2022-11-05T08:40:17.145Z,11.00
2022-11-05T08:43:58.977Z,11.10
2022-11-05T08:47:40.849Z,11.20
2022-11-05T08:51:22.684Z,11.30
2022-11-05T08:55:04.772Z,11.30
2022-11-05T08:58:46.974Z,11.40
2022-11-05T09:02:28.926Z,11.40
2022-11-05T09:06:10.894Z,11.50
2022-11-05T09:09:52.753Z,11.60
2022-11-05T09:13:34.644Z,11.60
2022-11-05T09:17:19.384Z,11.70
2022-11-05T09:21:01.239Z,11.70
2022-11-05T09:24:43.788Z,11.70
2022-11-05T09:28:25.787Z,11.80
2022-11-05T09:32:08.269Z,11.80
2022-11-05T09:35:51.816Z,11.80
2022-11-05T09:39:33.738Z,11.90
2022-11-05T09:43:20.527Z,11.90
2022-11-05T09:47:05.128Z,11.90
2022-11-05T09:50:47.427Z,11.90
2022-11-05T09:54:31.814Z,11.90
2022-11-05T09:58:28.506Z,11.90
2022-11-05T10:02:18.462Z,11.90
2022-11-05T10:06:14.440Z,11.90
2022-11-05T10:10:00.603Z,11.80
2022-11-05T10:13:54.615Z,11.80
2022-11-05T10:17:39.334Z,11.90
2022-11-05T10:21:37.758Z,11.90
2022-11-05T10:25:33.593Z,11.90
2022-11-05T10:29:24.039Z,12.00
2022-11-05T10:33:08.647Z,11.90
2022-11-05T10:36:50.620Z,11.90
2022-11-05T10:40:38.851Z,12.00
2022-11-05T10:44:34.177Z,12.00
2022-11-05T10:48:43.685Z,12.00
2022-11-05T10:52:33.495Z,12.10
2022-11-05T10:56:30.264Z,12.10
2022-11-05T11:00:23.901Z,12.20
2022-11-05T11:04:22.521Z,12.20
2022-11-05T11:08:23.799Z,12.30
2022-11-05T11:12:17.046Z,12.40
2022-11-05T11:16:16.859Z,12.40
2022-11-05T11:20:17.570Z,12.40
2022-11-05T11:23:59.478Z,12.50
2022-11-05T11:27:41.428Z,12.40
2022-11-05T11:31:26.022Z,12.40
2022-11-05T11:35:22.939Z,12.40
2022-11-05T11:39:06.766Z,12.40
2022-11-05T11:42:56.684Z,12.40
2022-11-05T11:46:38.933Z,12.40
2022-11-05T11:50:41.801Z,12.40
2022-11-05T11:54:28.954Z,12.40
2022-11-05T11:58:11.653Z,12.40
2022-11-05T12:02:29.002Z,12.40
2022-11-05T12:06:49.690Z,12.40
2022-11-05T12:10:55.403Z,12.40
2022-11-05T12:14:56.465Z,12.40
2022-11-05T12:18:44.273Z,12.40
2022-11-05T12:22:42.111Z,12.40
2022-11-05T12:26:51.807Z,12.40
2022-11-05T12:31:09.065Z,12.30
2022-11-05T12:35:05.586Z,12.30
2022-11-05T12:39:19.263Z,12.30
2022-11-05T12:43:25.715Z,12.30
2022-11-05T12:47:29.786Z,12.40
2022-11-05T12:51:38.849Z,12.40
2022-11-05T12:55:25.718Z,12.40
2022-11-05T12:59:10.440Z,12.50
2022-11-05T13:03:14.375Z,12.50
2022-11-05T13:06:59.182Z,12.50
2022-11-05T13:10:55.806Z,12.60
2022-11-05T13:15:11.614Z,12.60
2022-11-05T13:19:08.577Z,12.60
2022-11-05T13:22:58.492Z,12.70
2022-11-05T13:26:58.950Z,12.70
2022-11-05T13:30:46.190Z,12.70
2022-11-05T13:34:29.482Z,12.70
2022-11-05T13:38:44.013Z,12.70
2022-11-05T13:42:47.278Z,12.80
2022-11-05T13:46:32.175Z,12.80
2022-11-05T13:50:14.000Z,12.80
2022-11-05T13:54:30.993Z,12.80
2022-11-05T13:58:34.544Z,12.80
2022-11-05T14:02:31.099Z,12.80
2022-11-05T14:06:13.142Z,12.80
2022-11-05T14:10:20.649Z,12.80
2022-11-05T14:14:06.843Z,12.80
2022-11-05T14:18:00.968Z,12.80
2022-11-05T14:21:55.479Z,12.80
2022-11-05T14:25:37.252Z,12.90
2022-11-05T14:29:24.123Z,12.90
2022-11-05T14:33:16.516Z,12.90
2022-11-05T14:37:13.350Z,12.90
2022-11-05T14:41:00.804Z,13.00
2022-11-05T14:45:13.364Z,13.00
2022-11-05T14:49:08.075Z,13.00
2022-11-05T14:53:07.846Z,13.00
2022-11-05T14:56:56.618Z,13.00
2022-11-05T15:00:41.024Z,13.10
2022-11-05T15:04:35.946Z,13.10
2022-11-05T15:08:24.788Z,13.10
2022-11-05T15:12:28.612Z,13.10
2022-11-05T15:16:16.224Z,13.10
2022-11-05T15:20:09.219Z,13.10
2022-11-05T15:23:56.339Z,13.10
2022-11-05T15:27:49.160Z,13.20
2022-11-05T15:31:36.234Z,13.20
2022-11-05T15:35:21.332Z,13.30
2022-11-05T15:39:29.463Z,13.30
2022-11-05T15:43:17.783Z,13.30
2022-11-05T15:47:15.305Z,13.30
2022-11-05T15:50:57.469Z,13.40
2022-11-05T15:54:39.425Z,13.40
2022-11-05T15:58:21.606Z,13.40
2022-11-05T16:02:25.584Z,13.50
2022-11-05T16:06:09.575Z,13.50
2022-11-05T16:09:57.991Z,13.50
2022-11-05T16:13:41.981Z,13.60
2022-11-05T16:17:26.581Z,13.60
2022-11-05T16:21:12.616Z,13.60
2022-11-05T16:24:54.546Z,13.60
2022-11-05T16:28:36.465Z,13.70
2022-11-05T16:32:28.591Z,13.70
2022-11-05T16:36:12.979Z,13.70
2022-11-05T16:39:55.935Z,13.80
2022-11-05T16:43:37.850Z,13.80
2022-11-05T16:47:20.072Z,13.80
2022-11-05T16:51:01.939Z,13.80
2022-11-05T16:54:43.887Z,13.80
2022-11-05T16:58:26.890Z,13.80
2022-11-05T17:02:11.391Z,13.90
2022-11-05T17:05:53.343Z,13.90
2022-11-05T17:09:35.188Z,13.90
2022-11-05T17:13:18.599Z,14.00
2022-11-05T17:17:01.375Z,14.00
2022-11-05T17:20:46.649Z,14.00
2022-11-05T17:24:28.516Z,14.00
2022-11-05T17:28:11.405Z,14.00
2022-11-05T17:31:53.532Z,14.00
2022-11-05T17:35:38.664Z,14.00
2022-11-05T17:39:20.593Z,14.10
2022-11-05T17:43:02.876Z,14.10
2022-11-05T17:46:44.741Z,14.10
2022-11-05T17:50:26.578Z,14.00
2022-11-05T17:54:08.487Z,14.00
2022-11-05T17:57:52.805Z,14.00
2022-11-05T18:01:37.364Z,14.00
2022-11-05T18:05:20.269Z,14.00
2022-11-05T18:09:02.989Z,14.00
2022-11-05T18:12:45.393Z,14.00
2022-11-05T18:16:27.339Z,13.90
2022-11-05T18:20:17.442Z,14.00
2022-11-05T18:24:03.949Z,14.00
2022-11-05T18:27:45.905Z,14.00
2022-11-05T18:31:27.837Z,13.90
2022-11-05T18:35:09.927Z,13.90
2022-11-05T18:38:51.905Z,13.90
2022-11-05T18:42:33.772Z,14.00
2022-11-05T18:46:43.051Z,14.00
2022-11-05T18:50:17.674Z,13.90
2022-11-05T18:54:00.598Z,13.90
2022-11-05T18:57:42.436Z,14.00
2022-11-05T19:01:28.543Z,14.00
2022-11-05T19:09:12.730Z,14.00
2022-11-05T19:12:54.835Z,14.00
2022-11-05T19:16:36.759Z,14.00
2022-11-05T19:20:18.599Z,14.00
2022-11-05T19:24:02.276Z,14.00
2022-11-05T19:27:44.154Z,14.00
2022-11-05T19:31:26.068Z,14.00
2022-11-05T19:35:08.553Z,14.00
2022-11-05T19:38:58.263Z,14.00
2022-11-05T19:42:40.148Z,14.00
2022-11-05T19:46:23.724Z,14.00
2022-11-05T19:50:06.172Z,13.90
2022-11-05T19:53:48.534Z,13.90
2022-11-05T19:57:30.473Z,13.90
2022-11-05T20:01:13.835Z,13.90
2022-11-05T20:04:55.762Z,13.90
2022-11-05T20:08:53.389Z,13.90
2022-11-05T20:12:39.790Z,13.90
2022-11-05T20:16:27.631Z,13.90
2022-11-05T20:20:10.057Z,13.90
2022-11-05T20:23:51.955Z,13.90
2022-11-05T20:27:33.803Z,13.80
2022-11-05T20:31:17.974Z,13.80
2022-11-05T20:35:02.113Z,13.80
2022-11-05T20:38:51.714Z,13.70
2022-11-05T20:42:36.183Z,13.70
2022-11-05T20:46:20.245Z,13.60
2022-11-05T20:50:04.055Z,13.60
2022-11-05T20:53:48.992Z,13.50
2022-11-05T20:57:30.944Z,13.50
2022-11-05T21:01:15.664Z,13.40
2022-11-05T21:04:57.541Z,13.30
2022-11-05T21:08:40.223Z,13.30
2022-11-05T21:12:23.142Z,13.30
2022-11-05T21:16:07.401Z,13.20
2022-11-05T21:19:49.308Z,13.20
2022-11-05T21:23:31.202Z,13.20
2022-11-05T21:27:13.075Z,13.20
2022-11-05T21:30:55.245Z,13.20
2022-11-05T21:34:37.141Z,13.20
2022-11-05T21:38:19.139Z,13.20
2022-11-05T21:42:02.533Z,13.20
2022-11-05T21:45:45.423Z,13.20
2022-11-05T21:49:27.337Z,13.20
2022-11-05T21:53:32.498Z,13.20
2022-11-05T21:57:35.666Z,13.20
2022-11-05T22:01:17.933Z,13.20
2022-11-05T22:05:00.257Z,13.20
2022-11-05T22:08:42.253Z,13.10
2022-11-05T22:12:25.032Z,13.20
2022-11-05T22:16:07.472Z,13.10
2022-11-05T22:19:49.499Z,13.10
2022-11-05T22:23:31.337Z,13.10
2022-11-05T22:27:17.262Z,13.10
2022-11-05T22:30:59.119Z,13.10
2022-11-05T22:34:41.055Z,13.00
2022-11-05T22:38:22.909Z,12.90
2022-11-05T22:42:08.489Z,12.90
2022-11-05T22:45:50.826Z,12.80
2022-11-05T22:49:33.207Z,12.80
2022-11-05T22:53:15.049Z,12.70
2022-11-05T22:56:57.079Z,12.60
2022-11-05T23:00:38.995Z,12.50
2022-11-05T23:04:20.849Z,12.50
2022-11-05T23:08:21.450Z,12.50
2022-11-05T23:12:06.218Z,12.40
2022-11-05T23:16:06.436Z,12.40
2022-11-05T23:20:07.139Z,12.40
2022-11-05T23:24:09.252Z,12.40
2022-11-05T23:27:52.944Z,12.30
2022-11-05T23:31:53.232Z,12.30
2022-11-05T23:35:53.832Z,12.30
2022-11-05T23:39:39.799Z,12.30
2022-11-05T23:43:42.464Z,12.20
2022-11-05T23:47:43.064Z,12.20
2022-11-05T23:51:24.903Z,12.10
2022-11-05T23:55:07.075Z,12.00
2022-11-05T23:58:48.994Z,11.90
